createdAt,value
2022-10-11T00:01:01.233Z,47.37
2022-10-11T00:02:03.635Z,47.36
2022-10-11T00:03:08.512Z,47.37
2022-10-11T00:04:10.920Z,47.36
2022-10-11T00:05:12.904Z,47.31
2022-10-11T00:06:16.857Z,47.37
2022-10-11T00:07:19.106Z,47.31
2022-10-11T00:08:21.348Z,47.31
2022-10-11T00:09:23.317Z,47.29
2022-10-11T00:10:25.407Z,47.30
2022-10-11T00:11:28.009Z,47.34
2022-10-11T00:12:30.875Z,47.50
2022-10-11T00:13:32.856Z,47.53
2022-10-11T00:14:35.485Z,47.50
2022-10-11T00:15:38.677Z,47.46
2022-10-11T00:16:41.063Z,47.42
2022-10-11T00:17:43.445Z,47.43
2022-10-11T00:18:45.823Z,47.40
2022-10-11T00:19:48.681Z,47.43
2022-10-11T00:22:08.908Z,47.42
2022-10-11T00:23:11.817Z,47.40
2022-10-11T00:24:13.853Z,47.40
2022-10-11T00:25:17.352Z,47.39
2022-10-11T00:26:20.605Z,47.41
2022-10-11T00:27:22.952Z,47.41
2022-10-11T00:28:25.164Z,47.43
2022-10-11T00:29:28.317Z,47.43
2022-10-11T00:30:30.797Z,47.43
2022-10-11T00:31:35.830Z,47.39
2022-10-11T00:32:39.356Z,47.35
2022-10-11T00:33:41.715Z,47.35
2022-10-11T00:34:43.700Z,47.43
2022-10-11T00:35:45.716Z,47.45
2022-10-11T00:36:47.801Z,47.51
2022-10-11T00:37:52.219Z,47.49
2022-10-11T00:38:54.699Z,47.47
2022-10-11T00:39:57.725Z,47.44
2022-10-11T00:41:00.423Z,47.43
2022-10-11T00:42:03.801Z,47.38
2022-10-11T00:43:17.105Z,47.38
2022-10-11T00:44:21.966Z,47.31
2022-10-11T00:45:30.754Z,47.25
2022-10-11T00:46:33.499Z,47.25
2022-10-11T00:47:36.313Z,47.26
2022-10-11T00:48:40.344Z,47.27
2022-10-11T00:49:45.537Z,47.25
2022-10-11T00:50:47.893Z,47.27
2022-10-11T00:51:52.360Z,47.32
2022-10-11T00:54:15.599Z,47.23
2022-10-11T00:55:18.496Z,47.25
2022-10-11T00:56:26.264Z,47.25
2022-10-11T00:57:30.309Z,47.26
2022-10-11T00:58:33.333Z,47.26
2022-10-11T00:59:37.418Z,47.24
2022-10-11T01:00:40.581Z,47.22
2022-10-11T01:01:43.258Z,47.29
2022-10-11T01:02:45.534Z,47.30
2022-10-11T01:03:47.860Z,47.28
2022-10-11T01:05:05.616Z,47.27
2022-10-11T01:05:54.600Z,47.25
2022-10-11T01:06:57.296Z,47.23
2022-10-11T01:07:59.417Z,47.54
2022-10-11T01:09:01.830Z,47.54
2022-10-11T01:10:05.174Z,47.27
2022-10-11T01:11:12.913Z,47.30
2022-10-11T01:12:19.453Z,47.28
2022-10-11T01:13:28.467Z,47.29
2022-10-11T01:15:03.251Z,47.26
2022-10-11T01:16:21.553Z,47.22
2022-10-11T01:17:50.616Z,47.23
2022-10-11T01:19:29.108Z,47.21
2022-10-11T01:20:50.713Z,47.21
2022-10-11T01:22:13.492Z,47.21
2022-10-11T01:23:28.544Z,47.26
2022-10-11T01:24:47.180Z,47.33
2022-10-11T01:26:19.252Z,47.35
2022-10-11T01:27:42.547Z,47.41
2022-10-11T01:28:52.109Z,47.46
2022-10-11T01:30:23.788Z,47.48
2022-10-11T01:31:41.723Z,47.54
2022-10-11T01:32:47.800Z,47.55
2022-10-11T01:33:55.552Z,47.59
2022-10-11T01:35:07.783Z,47.60
2022-10-11T01:36:14.418Z,47.68
2022-10-11T01:37:26.675Z,47.69
2022-10-11T01:38:36.253Z,47.71
2022-10-11T01:39:41.945Z,47.68
2022-10-11T01:40:52.724Z,47.67
2022-10-11T01:41:55.736Z,47.68
2022-10-11T01:42:57.788Z,47.67
2022-10-11T01:44:00.189Z,47.67
2022-10-11T01:45:02.317Z,47.65
2022-10-11T01:46:06.645Z,47.68
2022-10-11T01:47:10.226Z,47.67
2022-10-11T01:48:12.968Z,47.70
2022-10-11T01:49:14.961Z,47.70
2022-10-11T01:51:56.005Z,47.63
2022-10-11T01:52:59.179Z,47.57
2022-10-11T01:54:20.587Z,47.58
2022-10-11T01:55:26.240Z,47.59
2022-10-11T01:56:53.648Z,47.57
2022-10-11T02:00:15.588Z,47.52
2022-10-11T02:01:27.546Z,47.48
2022-10-11T02:02:51.857Z,47.50
2022-10-11T02:05:38.851Z,47.58
2022-10-11T02:07:04.283Z,47.56
2022-10-11T02:09:36.801Z,47.57
2022-10-11T02:11:01.630Z,47.56
2022-10-11T02:12:09.140Z,47.59
2022-10-11T02:13:32.997Z,47.58
2022-10-11T02:14:39.018Z,47.56
2022-10-11T02:15:41.098Z,47.51
2022-10-11T02:18:11.774Z,47.52
2022-10-11T02:19:17.225Z,47.50
2022-10-11T02:20:21.503Z,47.49
2022-10-11T02:21:23.681Z,47.52
2022-10-11T02:23:45.650Z,47.53
2022-10-11T02:24:49.411Z,47.52
2022-10-11T02:25:51.965Z,47.52
2022-10-11T02:26:55.726Z,47.52
2022-10-11T02:27:59.010Z,47.53
2022-10-11T02:29:02.316Z,47.62
2022-10-11T02:30:06.298Z,47.59
2022-10-11T02:31:08.723Z,47.55
2022-10-11T02:32:10.705Z,47.52
2022-10-11T02:33:13.804Z,47.48
2022-10-11T02:34:36.855Z,47.48
2022-10-11T02:35:41.879Z,47.41
2022-10-11T02:37:00.516Z,47.38
2022-10-11T02:38:12.963Z,47.37
2022-10-11T02:39:18.671Z,47.35
2022-10-11T02:40:24.599Z,47.33
2022-10-11T02:42:54.805Z,47.33
2022-10-11T02:45:27.400Z,47.29
2022-10-11T02:46:29.649Z,47.37
2022-10-11T02:47:32.916Z,47.43
2022-10-11T02:48:35.255Z,47.46
2022-10-11T02:49:37.222Z,47.47
2022-10-11T02:50:40.053Z,47.46
2022-10-11T02:51:42.008Z,47.47
2022-10-11T02:52:44.839Z,47.45
2022-10-11T02:53:46.809Z,47.40
2022-10-11T02:54:49.004Z,47.37
2022-10-11T02:55:52.088Z,47.41
2022-10-11T02:56:54.223Z,47.35
2022-10-11T02:57:56.376Z,47.37
2022-10-11T02:58:58.457Z,47.34
2022-10-11T03:00:02.765Z,47.39
2022-10-11T03:01:05.229Z,47.34
2022-10-11T03:02:07.279Z,47.34
2022-10-11T03:03:09.616Z,47.31
2022-10-11T03:04:11.588Z,47.26
2022-10-11T03:05:13.595Z,47.26
2022-10-11T03:06:16.220Z,47.26
2022-10-11T03:07:18.838Z,47.21
2022-10-11T03:08:20.918Z,46.83
2022-10-11T03:09:23.003Z,46.83
2022-10-11T03:10:25.060Z,47.08
2022-10-11T03:11:27.739Z,47.05
2022-10-11T03:12:30.416Z,47.00
2022-10-11T03:13:32.417Z,47.00
2022-10-11T03:14:34.410Z,46.96
2022-10-11T03:15:37.546Z,47.01
2022-10-11T03:16:39.655Z,47.04
2022-10-11T03:17:41.645Z,47.04
2022-10-11T03:18:44.708Z,47.06
2022-10-11T03:19:46.793Z,47.07
2022-10-11T03:20:50.104Z,47.07
2022-10-11T03:21:52.109Z,47.07
2022-10-11T03:22:54.076Z,47.07
2022-10-11T03:23:56.495Z,47.05
2022-10-11T03:25:03.349Z,47.04
2022-10-11T03:26:04.258Z,47.04
2022-10-11T03:27:06.898Z,46.99
2022-10-11T03:28:08.949Z,46.99
2022-10-11T03:29:11.083Z,46.98
2022-10-11T03:30:17.903Z,46.95
2022-10-11T03:31:17.934Z,46.94
2022-10-11T03:32:19.961Z,46.95
2022-10-11T03:33:22.387Z,46.94
2022-10-11T03:34:24.928Z,46.94
2022-10-11T03:35:26.982Z,46.97
2022-10-11T03:36:29.246Z,46.98
2022-10-11T03:37:31.256Z,46.95
2022-10-11T03:38:33.251Z,46.95
2022-10-11T03:39:38.472Z,46.97
2022-10-11T03:40:41.538Z,46.95
2022-10-11T03:41:43.924Z,46.95
2022-10-11T03:42:46.264Z,46.95
2022-10-11T03:43:48.239Z,46.94
2022-10-11T03:44:50.222Z,46.92
2022-10-11T03:45:52.246Z,46.93
2022-10-11T03:46:54.872Z,46.94
2022-10-11T03:47:58.184Z,46.93
2022-10-11T03:49:02.123Z,47.27
2022-10-11T03:51:19.081Z,46.89
2022-10-11T03:52:21.460Z,46.90
2022-10-11T03:53:23.653Z,46.92
2022-10-11T03:54:26.899Z,46.89
2022-10-11T03:55:28.929Z,46.92
2022-10-11T03:56:31.796Z,46.87
2022-10-11T03:57:33.912Z,46.87
2022-10-11T03:58:36.120Z,46.87
2022-10-11T03:59:38.101Z,46.85
2022-10-11T04:00:40.193Z,46.81
2022-10-11T04:01:42.988Z,46.80
2022-10-11T04:02:47.930Z,46.81
2022-10-11T04:03:50.599Z,46.82
2022-10-11T04:04:53.397Z,46.82
2022-10-11T04:05:55.411Z,46.82
2022-10-11T04:06:57.531Z,46.81
2022-10-11T04:07:59.482Z,46.79
2022-10-11T04:09:02.125Z,46.81
2022-10-11T04:10:05.201Z,46.81
2022-10-11T04:11:07.266Z,46.87
2022-10-11T04:12:09.251Z,46.90
2022-10-11T04:13:12.022Z,46.91
2022-10-11T04:14:14.296Z,46.96
2022-10-11T04:15:16.404Z,47.00
2022-10-11T04:16:19.872Z,47.05
2022-10-11T04:17:21.915Z,47.06
2022-10-11T04:18:25.463Z,47.05
2022-10-11T04:19:27.619Z,47.09
2022-10-11T04:20:29.700Z,47.14
2022-10-11T04:21:31.746Z,47.18
2022-10-11T04:22:34.189Z,47.20
2022-10-11T04:23:38.335Z,47.23
2022-10-11T04:24:41.301Z,47.20
2022-10-11T04:25:43.339Z,47.11
2022-10-11T04:26:45.688Z,47.05
2022-10-11T04:27:48.019Z,47.05
2022-10-11T04:28:50.086Z,47.00
2022-10-11T04:29:52.743Z,46.98
2022-10-11T04:30:55.048Z,46.93
2022-10-11T04:31:57.210Z,46.89
2022-10-11T04:32:59.319Z,46.88
2022-10-11T04:34:01.300Z,46.79
2022-10-11T04:35:04.919Z,46.81
2022-10-11T04:36:08.548Z,46.78
2022-10-11T04:37:11.199Z,46.78
2022-10-11T04:38:14.507Z,46.76
2022-10-11T04:39:17.259Z,46.88
2022-10-11T04:40:19.410Z,46.89
2022-10-11T04:41:24.438Z,46.94
2022-10-11T04:42:26.608Z,46.97
2022-10-11T04:43:28.857Z,47.03
2022-10-11T04:44:31.032Z,47.06
2022-10-11T04:45:33.060Z,47.06
2022-10-11T04:46:35.117Z,47.11
2022-10-11T04:47:37.337Z,47.13
2022-10-11T04:48:39.912Z,47.15
2022-10-11T04:49:42.117Z,47.19
2022-10-11T04:50:44.299Z,47.19
2022-10-11T04:51:48.249Z,47.22
2022-10-11T04:52:50.259Z,47.26
2022-10-11T04:53:52.281Z,47.26
2022-10-11T04:54:55.085Z,47.34
2022-10-11T04:56:02.598Z,47.38
2022-10-11T04:57:05.431Z,47.36
2022-10-11T04:58:07.424Z,47.48
2022-10-11T04:59:09.962Z,47.42
2022-10-11T05:00:14.287Z,47.45
2022-10-11T05:01:16.545Z,47.51
2022-10-11T05:02:19.239Z,47.55
2022-10-11T05:03:21.391Z,47.61
2022-10-11T05:04:25.471Z,47.65
2022-10-11T05:05:28.107Z,47.63
2022-10-11T05:06:31.221Z,47.67
2022-10-11T05:07:33.236Z,47.71
2022-10-11T05:08:35.330Z,47.78
2022-10-11T05:09:37.313Z,47.85
2022-10-11T05:10:39.424Z,47.91
2022-10-11T05:11:42.693Z,47.95
2022-10-11T05:12:45.147Z,48.04
2022-10-11T05:13:48.511Z,48.07
2022-10-11T05:14:52.730Z,48.10
2022-10-11T05:15:54.964Z,48.14
2022-10-11T05:16:57.128Z,48.18
2022-10-11T05:17:59.311Z,48.22
2022-10-11T05:19:01.458Z,48.26
2022-10-11T05:20:04.260Z,48.25
2022-10-11T05:21:08.650Z,48.25
2022-10-11T05:22:10.832Z,48.29
2022-10-11T05:23:13.028Z,48.30
2022-10-11T05:24:15.306Z,48.31
2022-10-11T05:25:17.986Z,48.33
2022-10-11T05:26:20.078Z,48.32
2022-10-11T05:27:22.052Z,48.32
2022-10-11T05:28:25.140Z,48.33
2022-10-11T05:29:28.056Z,48.33
2022-10-11T05:30:32.071Z,48.33
2022-10-11T05:31:34.289Z,48.32
2022-10-11T05:32:36.254Z,48.40
2022-10-11T05:33:38.242Z,48.46
2022-10-11T05:34:41.019Z,48.46
2022-10-11T05:35:43.966Z,48.42
2022-10-11T05:36:46.769Z,48.45
2022-10-11T05:37:50.108Z,48.45
2022-10-11T05:38:52.598Z,48.49
2022-10-11T05:39:55.528Z,48.50
2022-10-11T05:41:01.466Z,48.57
2022-10-11T05:42:08.893Z,48.67
2022-10-11T05:43:08.813Z,48.76
2022-10-11T05:44:10.882Z,48.81
2022-10-11T05:45:12.946Z,48.90
2022-10-11T05:46:16.309Z,48.99
2022-10-11T05:47:18.987Z,49.07
2022-10-11T05:48:21.057Z,49.07
2022-10-11T05:49:23.641Z,49.18
2022-10-11T05:50:26.365Z,49.25
2022-10-11T05:51:28.350Z,49.30
2022-10-11T05:52:31.071Z,49.42
2022-10-11T05:53:34.869Z,49.46
2022-10-11T05:54:37.886Z,49.46
2022-10-11T05:55:42.960Z,49.59
2022-10-11T05:56:46.388Z,49.69
2022-10-11T05:57:50.808Z,49.74
2022-10-11T05:58:52.976Z,49.86
2022-10-11T05:59:54.994Z,49.98
2022-10-11T06:00:58.225Z,50.09
2022-10-11T06:02:00.875Z,50.19
2022-10-11T06:03:03.980Z,50.25
2022-10-11T06:04:07.160Z,50.33
2022-10-11T06:05:09.677Z,50.45
2022-10-11T06:06:12.205Z,50.53
2022-10-11T06:07:14.271Z,50.55
2022-10-11T06:08:16.787Z,50.66
2022-10-11T06:09:18.773Z,50.66
2022-10-11T06:10:20.877Z,50.68
2022-10-11T06:11:26.990Z,50.71
2022-10-11T06:12:29.929Z,50.72
2022-10-11T06:13:31.964Z,50.72
2022-10-11T06:14:35.014Z,50.70
2022-10-11T06:15:38.063Z,50.74
2022-10-11T06:16:40.229Z,50.72
2022-10-11T06:17:42.706Z,50.75
2022-10-11T06:18:44.785Z,50.72
2022-10-11T06:19:46.756Z,50.75
2022-10-11T06:20:49.562Z,50.70
2022-10-11T06:21:51.569Z,50.73
2022-10-11T06:22:54.048Z,50.73
2022-10-11T06:24:01.062Z,50.71
2022-10-11T06:25:00.278Z,50.70
2022-10-11T06:26:04.915Z,50.70
2022-10-11T06:27:07.790Z,50.70
2022-10-11T06:28:09.985Z,50.68
2022-10-11T06:29:12.747Z,50.69
2022-10-11T06:30:17.188Z,50.67
2022-10-11T06:31:21.623Z,50.68
2022-10-11T06:32:24.673Z,50.76
2022-10-11T06:33:27.451Z,50.79
2022-10-11T06:34:29.505Z,50.76
2022-10-11T06:35:31.503Z,50.76
2022-10-11T06:36:33.675Z,50.88
2022-10-11T06:37:35.673Z,50.83
2022-10-11T06:38:43.838Z,50.86
2022-10-11T06:39:42.730Z,50.88
2022-10-11T06:40:45.877Z,50.85
2022-10-11T06:41:47.830Z,50.88
2022-10-11T06:42:49.897Z,50.85
2022-10-11T06:43:52.674Z,50.85
2022-10-11T06:44:56.640Z,50.85
2022-10-11T06:45:59.370Z,50.83
2022-10-11T06:47:02.596Z,50.85
2022-10-11T06:48:05.290Z,50.83
2022-10-11T06:49:07.398Z,50.54
2022-10-11T06:50:10.122Z,50.54
2022-10-11T06:51:13.904Z,50.81
2022-10-11T06:52:16.562Z,50.85
2022-10-11T06:53:18.737Z,50.85
2022-10-11T06:54:20.742Z,50.80
2022-10-11T06:55:23.407Z,50.79
2022-10-11T06:56:26.228Z,50.83
2022-10-11T06:57:29.413Z,50.82
2022-10-11T06:58:31.922Z,50.88
2022-10-11T06:59:33.909Z,50.87
2022-10-11T07:00:35.979Z,50.91
2022-10-11T07:01:38.793Z,50.93
2022-10-11T07:02:42.417Z,51.03
2022-10-11T07:03:44.725Z,50.79
2022-10-11T07:04:47.473Z,50.44
2022-10-11T07:05:49.688Z,50.38
2022-10-11T07:06:51.781Z,50.01
2022-10-11T07:07:54.872Z,49.59
2022-10-11T07:08:58.680Z,49.30
2022-10-11T07:10:00.825Z,49.03
2022-10-11T07:12:27.323Z,48.01
2022-10-11T07:13:29.914Z,48.77
2022-10-11T07:14:32.357Z,48.51
2022-10-11T07:15:37.173Z,48.26
2022-10-11T07:16:39.859Z,47.58
2022-10-11T07:17:41.975Z,47.56
2022-10-11T07:18:45.560Z,46.78
2022-10-11T07:19:47.558Z,46.73
2022-10-11T07:20:50.325Z,46.86
2022-10-11T07:21:52.424Z,47.31
2022-10-11T07:22:54.610Z,47.56
2022-10-11T07:23:58.523Z,46.43
2022-10-11T07:25:00.651Z,46.19
2022-10-11T07:26:03.667Z,46.77
2022-10-11T07:27:07.054Z,47.26
2022-10-11T07:28:10.119Z,46.91
2022-10-11T07:29:12.764Z,47.29
2022-10-11T07:30:15.479Z,47.29
2022-10-11T07:31:19.847Z,47.51
2022-10-11T07:32:23.395Z,47.34
2022-10-11T07:33:25.632Z,47.45
2022-10-11T07:34:28.112Z,47.15
2022-10-11T07:35:30.456Z,47.32
2022-10-11T07:36:32.646Z,46.99
2022-10-11T07:37:34.628Z,46.79
2022-10-11T07:38:44.171Z,46.95
2022-10-11T07:39:49.019Z,47.13
2022-10-11T07:40:51.166Z,47.19
2022-10-11T07:41:55.240Z,47.18
2022-10-11T07:42:57.403Z,47.30
2022-10-11T07:44:00.002Z,47.38
2022-10-11T07:45:02.792Z,47.30
2022-10-11T07:46:05.691Z,47.34
2022-10-11T07:47:11.207Z,47.39
2022-10-11T07:48:13.338Z,47.21
2022-10-11T07:49:15.322Z,47.21
2022-10-11T07:50:18.191Z,47.25
2022-10-11T07:51:23.210Z,47.32
2022-10-11T07:52:25.655Z,46.79
2022-10-11T07:53:27.672Z,47.10
2022-10-11T07:54:29.946Z,47.20
2022-10-11T07:55:35.450Z,46.58
2022-10-11T07:56:37.576Z,46.79
2022-10-11T07:57:40.289Z,46.40
2022-10-11T07:58:42.747Z,46.59
2022-10-11T07:59:50.117Z,46.71
2022-10-11T08:00:52.948Z,46.62
2022-10-11T08:01:55.668Z,46.61
2022-10-11T08:02:57.697Z,46.61
2022-10-11T08:04:00.215Z,46.55
2022-10-11T08:05:02.999Z,46.29
2022-10-11T08:06:10.617Z,46.03
2022-10-11T08:07:12.910Z,46.33
2022-10-11T08:08:14.880Z,46.28
2022-10-11T08:09:18.648Z,46.27
2022-10-11T08:10:25.589Z,46.27
2022-10-11T08:11:29.690Z,46.20
2022-10-11T08:12:33.160Z,46.09
2022-10-11T08:13:35.274Z,46.03
2022-10-11T08:14:38.004Z,46.15
2022-10-11T08:15:53.871Z,46.21
2022-10-11T08:16:56.409Z,46.21
2022-10-11T08:17:58.441Z,46.26
2022-10-11T08:20:15.871Z,46.39
2022-10-11T08:21:19.303Z,46.54
2022-10-11T08:22:22.680Z,46.55
2022-10-11T08:23:24.733Z,46.59
2022-10-11T08:24:28.641Z,46.58
2022-10-11T08:25:37.178Z,46.59
2022-10-11T08:26:39.793Z,46.71
2022-10-11T08:27:41.805Z,46.71
2022-10-11T08:28:44.467Z,46.74
2022-10-11T08:29:47.638Z,46.85
2022-10-11T08:30:50.768Z,46.88
2022-10-11T08:31:53.332Z,46.93
2022-10-11T08:34:08.828Z,47.01
2022-10-11T08:35:13.174Z,47.04
2022-10-11T08:36:15.890Z,47.10
2022-10-11T08:37:18.086Z,47.13
2022-10-11T08:38:20.614Z,47.12
2022-10-11T08:39:22.833Z,47.16
2022-10-11T08:40:25.533Z,47.20
2022-10-11T08:41:31.134Z,47.23
2022-10-11T08:44:26.683Z,47.25
2022-10-11T08:45:31.919Z,47.27
2022-10-11T08:46:34.788Z,47.27
2022-10-11T08:47:40.648Z,47.38
2022-10-11T08:48:45.270Z,47.46
2022-10-11T08:49:47.981Z,47.52
2022-10-11T08:50:50.640Z,47.54
2022-10-11T08:51:55.222Z,47.53
2022-10-11T08:52:59.301Z,47.56
2022-10-11T08:54:07.963Z,47.58
2022-10-11T08:55:23.853Z,47.59
2022-10-11T08:56:26.575Z,47.68
2022-10-11T08:57:29.642Z,47.73
2022-10-11T08:58:43.984Z,47.79
2022-10-11T08:59:59.407Z,47.88
2022-10-11T09:01:02.760Z,47.96
2022-10-11T09:02:38.966Z,47.91
2022-10-11T09:04:51.833Z,48.03
2022-10-11T09:07:23.798Z,50.19
2022-10-11T09:08:43.296Z,50.79
2022-10-11T09:09:50.137Z,51.95
2022-10-11T09:11:16.576Z,53.31
2022-10-11T09:14:11.352Z,53.10
2022-10-11T09:17:01.823Z,53.35
2022-10-11T09:18:27.858Z,53.47
2022-10-11T09:21:22.571Z,53.79
2022-10-11T09:22:30.854Z,53.84
2022-10-11T09:23:43.579Z,53.82
2022-10-11T09:25:04.965Z,53.93
2022-10-11T09:26:17.067Z,54.01
2022-10-11T09:29:06.816Z,54.18
2022-10-11T09:31:25.499Z,54.12
2022-10-11T09:33:47.391Z,54.17
2022-10-11T09:36:24.408Z,54.17
2022-10-11T09:37:36.486Z,54.14
2022-10-11T09:38:45.318Z,54.19
2022-10-11T09:39:54.609Z,54.08
2022-10-11T09:41:26.778Z,54.06
2022-10-11T09:42:28.843Z,54.01
2022-10-11T09:43:31.050Z,54.02
2022-10-11T09:44:40.884Z,53.89
2022-10-11T09:45:48.265Z,53.93
2022-10-11T09:46:46.940Z,53.93
2022-10-11T09:49:04.285Z,53.98
2022-10-11T09:50:19.948Z,53.92
2022-10-11T09:51:23.824Z,53.86
2022-10-11T09:52:26.669Z,53.92
2022-10-11T09:54:58.416Z,53.92
2022-10-11T09:56:04.169Z,53.96
2022-10-11T09:57:09.228Z,53.95
2022-10-11T09:58:32.911Z,53.92
2022-10-11T09:59:35.971Z,53.91
2022-10-11T10:00:38.895Z,53.85
2022-10-11T10:01:42.428Z,53.84
2022-10-11T10:02:46.810Z,53.95
2022-10-11T10:03:49.208Z,53.97
2022-10-11T10:05:12.256Z,54.24
2022-10-11T10:06:22.392Z,54.17
2022-10-11T10:07:24.804Z,54.02
2022-10-11T10:08:27.806Z,52.66
2022-10-11T10:09:30.951Z,51.79
2022-10-11T10:10:46.281Z,52.82
2022-10-11T10:11:50.580Z,53.20
2022-10-11T10:12:57.801Z,53.17
2022-10-11T10:14:00.418Z,52.79
2022-10-11T10:15:19.770Z,52.92
2022-10-11T10:16:29.827Z,52.92
2022-10-11T10:17:32.036Z,52.66
2022-10-11T10:18:36.571Z,52.63
2022-10-11T10:19:44.750Z,51.53
2022-10-11T10:20:46.116Z,52.14
2022-10-11T10:23:22.516Z,51.81
2022-10-11T10:24:49.325Z,51.87
2022-10-11T10:25:53.537Z,51.89
2022-10-11T10:27:20.731Z,51.88
2022-10-11T10:28:24.796Z,49.52
2022-10-11T10:29:27.074Z,50.30
2022-10-11T10:30:35.214Z,50.49
2022-10-11T10:32:08.783Z,51.02
2022-10-11T10:32:53.892Z,50.99
2022-10-11T10:33:56.979Z,50.97
2022-10-11T10:35:25.526Z,48.40
2022-10-11T10:36:31.808Z,48.65
2022-10-11T10:37:55.415Z,47.61
2022-10-11T10:40:23.891Z,47.99
2022-10-11T10:41:27.079Z,48.52
2022-10-11T10:42:29.561Z,48.63
2022-10-11T10:43:37.269Z,48.62
2022-10-11T10:44:39.874Z,48.52
2022-10-11T10:46:10.044Z,48.17
2022-10-11T10:47:25.671Z,47.84
2022-10-11T10:49:15.089Z,47.26
2022-10-11T10:50:03.634Z,46.75
2022-10-11T10:51:30.356Z,46.59
2022-10-11T10:53:01.346Z,46.30
2022-10-11T10:54:10.113Z,45.97
2022-10-11T10:55:34.915Z,45.60
2022-10-11T10:58:20.261Z,45.50
2022-10-11T10:59:40.896Z,45.34
2022-10-11T11:02:39.520Z,45.29
2022-10-11T11:03:35.994Z,45.14
2022-10-11T11:04:38.521Z,45.17
2022-10-11T11:06:00.034Z,45.12
2022-10-11T11:08:42.730Z,45.07
2022-10-11T11:09:51.533Z,45.00
2022-10-11T11:11:06.297Z,44.97
2022-10-11T11:12:19.227Z,44.92
2022-10-11T11:13:43.566Z,44.87
2022-10-11T11:15:01.678Z,44.71
2022-10-11T11:18:00.565Z,44.50
2022-10-11T11:19:26.498Z,44.26
2022-10-11T11:20:49.534Z,44.19
2022-10-11T11:23:23.688Z,43.58
2022-10-11T11:24:46.107Z,43.51
2022-10-11T11:26:13.995Z,43.39
2022-10-11T11:27:20.426Z,43.14
2022-10-11T11:28:29.280Z,42.84
2022-10-11T11:29:38.468Z,42.72
2022-10-11T11:30:54.257Z,42.48
2022-10-11T11:32:09.807Z,42.51
2022-10-11T11:34:45.960Z,42.37
2022-10-11T11:35:51.502Z,42.08
2022-10-11T11:37:03.681Z,41.83
2022-10-11T11:38:13.692Z,41.90
2022-10-11T11:39:36.035Z,41.80
2022-10-11T11:40:43.718Z,41.84
2022-10-11T11:41:50.138Z,41.44
2022-10-11T11:42:54.791Z,41.35
2022-10-11T11:44:18.883Z,41.21
2022-10-11T11:46:46.254Z,41.73
2022-10-11T11:48:01.293Z,41.77
2022-10-11T11:49:12.131Z,41.78
2022-10-11T11:51:31.739Z,40.94
2022-10-11T11:52:41.687Z,40.98
2022-10-11T11:54:14.239Z,40.60
2022-10-11T11:55:20.350Z,40.65
2022-10-11T11:56:33.354Z,40.95
2022-10-11T11:57:53.836Z,40.17
2022-10-11T12:00:29.977Z,40.04
2022-10-11T12:03:11.953Z,38.75
2022-10-11T12:04:24.773Z,39.32
2022-10-11T12:05:33.668Z,39.87
2022-10-11T12:06:43.729Z,40.11
2022-10-11T12:07:56.523Z,39.29
2022-10-11T12:10:34.158Z,39.88
2022-10-11T12:11:40.373Z,38.95
2022-10-11T12:12:43.010Z,38.94
2022-10-11T12:13:45.113Z,38.60
2022-10-11T12:14:47.858Z,38.38
2022-10-11T12:16:10.846Z,38.38
2022-10-11T12:17:19.125Z,38.27
2022-10-11T12:18:21.486Z,38.11
2022-10-11T12:19:25.308Z,38.02
2022-10-11T12:20:34.671Z,38.05
2022-10-11T12:21:38.520Z,38.11
2022-10-11T12:22:50.694Z,38.12
2022-10-11T12:23:57.553Z,38.16
2022-10-11T12:25:17.585Z,38.23
2022-10-11T12:26:20.161Z,38.31
2022-10-11T12:27:41.298Z,38.37
2022-10-11T12:28:46.971Z,38.44
2022-10-11T12:29:49.374Z,38.71
2022-10-11T12:30:52.178Z,38.83
2022-10-11T12:32:01.313Z,39.27
2022-10-11T12:33:22.289Z,39.27
2022-10-11T12:35:55.953Z,39.18
2022-10-11T12:36:58.088Z,39.34
2022-10-11T12:39:53.091Z,39.52
2022-10-11T12:41:10.431Z,39.56
2022-10-11T12:42:33.935Z,39.66
2022-10-11T12:43:48.683Z,39.72
2022-10-11T12:45:12.666Z,39.87
2022-10-11T12:48:02.860Z,40.09
2022-10-11T12:49:22.380Z,40.15
2022-10-11T12:50:43.522Z,40.24
2022-10-11T12:52:15.430Z,40.33
2022-10-11T12:53:30.452Z,40.45
2022-10-11T12:54:53.134Z,40.51
2022-10-11T12:56:24.229Z,40.56
2022-10-11T12:57:50.840Z,40.65
2022-10-11T12:59:01.406Z,40.74
2022-10-11T13:00:13.713Z,40.85
2022-10-11T13:01:21.376Z,40.90
2022-10-11T13:03:42.032Z,41.09
2022-10-11T13:04:45.690Z,41.08
2022-10-11T13:05:53.482Z,41.19
2022-10-11T13:06:56.283Z,41.24
2022-10-11T13:07:59.432Z,41.22
2022-10-11T13:09:11.597Z,41.26
2022-10-11T13:10:18.987Z,41.26
2022-10-11T13:12:38.701Z,41.22
2022-10-11T13:15:06.697Z,41.48
2022-10-11T13:16:15.780Z,41.49
2022-10-11T13:17:28.190Z,41.46
2022-10-11T13:18:30.229Z,41.43
2022-10-11T13:19:34.098Z,41.38
2022-10-11T13:20:40.311Z,41.39
2022-10-11T13:21:42.050Z,41.37
2022-10-11T13:22:46.450Z,41.35
2022-10-11T13:23:49.560Z,41.28
2022-10-11T13:24:52.239Z,41.24
2022-10-11T13:25:55.315Z,41.26
2022-10-11T13:26:58.087Z,41.29
2022-10-11T13:28:01.191Z,41.27
2022-10-11T13:29:03.298Z,41.28
2022-10-11T13:30:08.324Z,41.31
2022-10-11T13:31:10.712Z,41.30
2022-10-11T13:33:36.912Z,41.02
2022-10-11T13:34:39.865Z,41.08
2022-10-11T13:35:41.905Z,41.09
2022-10-11T13:36:45.189Z,40.98
2022-10-11T13:37:48.061Z,41.04
2022-10-11T13:40:16.092Z,41.05
2022-10-11T13:41:18.821Z,41.11
2022-10-11T13:42:30.177Z,41.09
2022-10-11T13:43:34.276Z,41.09
2022-10-11T13:44:37.718Z,41.14
2022-10-11T13:45:41.782Z,41.14
2022-10-11T13:46:44.531Z,41.24
2022-10-11T13:47:47.737Z,41.30
2022-10-11T13:49:04.044Z,41.30
2022-10-11T13:51:36.968Z,40.63
2022-10-11T13:53:01.551Z,40.57
2022-10-11T13:54:08.474Z,40.23
2022-10-11T13:55:14.770Z,40.06
2022-10-11T13:56:17.421Z,39.58
2022-10-11T13:57:24.281Z,38.98
2022-10-11T13:58:28.312Z,38.70
2022-10-11T13:59:31.414Z,38.25
2022-10-11T14:00:37.718Z,37.86
2022-10-11T14:01:40.807Z,37.71
2022-10-11T14:02:52.894Z,37.22
2022-10-11T14:04:01.416Z,37.14
2022-10-11T14:05:03.891Z,36.75
2022-10-11T14:06:08.337Z,36.59
2022-10-11T14:07:32.822Z,36.51
2022-10-11T14:08:43.979Z,36.51
2022-10-11T14:09:47.105Z,36.51
2022-10-11T14:10:55.666Z,36.36
2022-10-11T15:20:02.191Z,43.70
2022-10-11T15:21:05.293Z,43.87
2022-10-11T15:22:07.349Z,43.78
2022-10-11T15:23:12.213Z,43.77
2022-10-11T15:24:14.241Z,43.78
2022-10-11T15:25:17.680Z,43.66
2022-10-11T15:26:22.374Z,43.64
2022-10-11T15:27:27.365Z,43.51
2022-10-11T15:28:32.633Z,43.37
2022-10-11T15:29:34.811Z,43.20
2022-10-11T15:30:40.975Z,43.08
2022-10-11T15:31:40.937Z,42.97
2022-10-11T15:32:45.522Z,42.84
2022-10-11T15:33:48.739Z,42.89
2022-10-11T15:34:52.669Z,42.73
2022-10-11T15:35:55.390Z,42.80
2022-10-11T15:36:58.602Z,42.79
2022-10-11T15:38:02.752Z,42.78
2022-10-11T15:40:30.434Z,42.81
2022-10-11T15:41:33.230Z,42.81
2022-10-11T15:42:35.215Z,42.79
2022-10-11T15:43:38.339Z,42.81
2022-10-11T15:44:40.920Z,42.78
2022-10-11T15:45:43.478Z,42.75
2022-10-11T15:46:47.377Z,42.80
2022-10-11T15:47:50.034Z,42.78
2022-10-11T15:48:52.448Z,42.80
2022-10-11T15:49:54.441Z,42.85
2022-10-11T15:50:57.993Z,42.78
2022-10-11T15:52:00.604Z,42.84
2022-10-11T15:53:10.714Z,42.93
2022-10-11T15:54:13.344Z,42.86
2022-10-11T15:55:16.074Z,42.97
2022-10-11T15:56:18.374Z,43.23
2022-10-11T15:57:20.364Z,43.31
2022-10-11T15:58:24.912Z,43.40
2022-10-11T15:59:27.075Z,43.47
2022-10-11T16:00:29.338Z,43.50
2022-10-11T16:01:31.564Z,43.53
2022-10-11T16:02:34.925Z,43.62
2022-10-11T16:03:37.147Z,43.64
2022-10-11T16:04:39.731Z,43.69
2022-10-11T16:05:42.761Z,43.73
2022-10-11T16:06:45.344Z,43.78
2022-10-11T16:07:47.614Z,43.81
2022-10-11T16:08:49.829Z,43.88
2022-10-11T16:09:51.811Z,43.93
2022-10-11T16:10:54.540Z,43.89
2022-10-11T16:11:56.567Z,43.94
2022-10-11T16:12:59.103Z,44.02
2022-10-11T16:14:01.063Z,44.09
2022-10-11T16:15:03.689Z,44.08
2022-10-11T16:16:07.599Z,44.04
2022-10-11T16:17:10.599Z,43.93
2022-10-11T16:18:15.384Z,43.93
2022-10-11T16:19:17.899Z,43.88
2022-10-11T16:20:19.980Z,43.82
2022-10-11T16:21:22.112Z,43.82
2022-10-11T16:22:25.090Z,43.96
2022-10-11T16:23:27.777Z,44.01
2022-10-11T16:24:29.776Z,43.79
2022-10-11T16:25:32.585Z,43.46
2022-10-11T16:26:35.532Z,43.57
2022-10-11T16:27:37.575Z,43.61
2022-10-11T16:28:40.649Z,43.63